Terminal Aerodrome Forecast
Issued by NWS

Home | Current Version | Previous Version | Text Only | Print | Product List | Glossary On
Versions: 1 2 3 4 5 6 7 8 9 10 11 12 13 14 15 16 17 18 19 20 21
000
FTPA31 PHFO 192341
TAFMDY
TAF
PMDY 192341Z 2000/2024 13011KT P6SM SCT025
     FM201200 15015KT P6SM VCSH SCT025 BKN040
     FM201500 18015G20KT 4SM SHRA BR BKN025 OVC035
     FM202100 28010KT P6SM SCT020 OVC030=

USA.gov is the U.S. government's official web portal to all federal, state and local government web resources and services.